Terminal Aerodrome Forecast
Issued by NWS

Home | Current Version | Previous Version | Text Only | Print | Product List | Glossary On
Versions: 1 2 3 4 5 6 7 8 9 10 11 12 13 14 15 16 17 18 19 20 21 22 23 24 25 26 27 28 29 30 31 32
484
FTUS42 TJSJ 232339
TAFJBQ
TAF
TJBQ 232339Z 2400/2424 09007KT P6SM SCT030 SCT050 BKN070
     FM240230 11004KT P6SM FEW030 FEW050 SCT070
     FM240600 VRB02KT P6SM FEW035 SCT070
     FM241430 05014KT P6SM SCT030
      AMD NOT SKED 2402/2411=

USA.gov is the U.S. government's official web portal to all federal, state and local government web resources and services.